地図

経路データ

SID SEASON NUMBER BASIN SUBBASIN NAME ISO_TIME NATURE LAT LON WMO_WIND WMO_PRES WMO_AGENCY TRACK_TYPE DIST2LAND LANDFALL IFLAG USA_AGENCY USA_ATCF_ID USA_LAT USA_LON USA_RECORD USA_STATUS USA_WIND USA_PRES USA_SSHS USA_R34_NE USA_R34_SE USA_R34_SW USA_R34_NW USA_R50_NE USA_R50_SE USA_R50_SW USA_R50_NW USA_R64_NE USA_R64_SE USA_R64_SW USA_R64_NW USA_POCI USA_ROCI USA_RMW USA_EYE TOKYO_LAT TOKYO_LON TOKYO_GRADE TOKYO_WIND TOKYO_PRES TOKYO_R50_DIR TOKYO_R50_LONG TOKYO_R50_SHORT TOKYO_R30_DIR TOKYO_R30_LONG TOKYO_R30_SHORT TOKYO_LAND CMA_LAT CMA_LON CMA_CAT CMA_WIND CMA_PRES HKO_LAT HKO_LON HKO_CAT HKO_WIND HKO_PRES NEWDELHI_LAT NEWDELHI_LON NEWDELHI_GRADE NEWDELHI_WIND NEWDELHI_PRES NEWDELHI_CI NEWDELHI_DP NEWDELHI_POCI REUNION_LAT REUNION_LON REUNION_TYPE REUNION_WIND REUNION_PRES REUNION_TNUM REUNION_CI REUNION_RMW REUNION_R34_NE REUNION_R34_SE REUNION_R34_SW REUNION_R34_NW REUNION_R50_NE REUNION_R50_SE REUNION_R50_SW REUNION_R50_NW REUNION_R64_NE REUNION_R64_SE REUNION_R64_SW REUNION_R64_NW BOM_LAT BOM_LON BOM_TYPE BOM_WIND BOM_PRES BOM_TNUM BOM_CI BOM_RMW BOM_R34_NE BOM_R34_SE BOM_R34_SW BOM_R34_NW BOM_R50_NE BOM_R50_SE BOM_R50_SW BOM_R50_NW BOM_R64_NE BOM_R64_SE BOM_R64_SW BOM_R64_NW BOM_ROCI BOM_POCI BOM_EYE BOM_POS_METHOD BOM_PRES_METHOD NADI_LAT NADI_LON NADI_CAT NADI_WIND NADI_PRES WELLINGTON_LAT WELLINGTON_LON WELLINGTON_WIND WELLINGTON_PRES DS824_LAT DS824_LON DS824_STAGE DS824_WIND DS824_PRES TD9636_LAT TD9636_LON TD9636_STAGE TD9636_WIND TD9636_PRES TD9635_LAT TD9635_LON TD9635_WIND TD9635_PRES TD9635_ROCI NEUMANN_LAT NEUMANN_LON NEUMANN_CLASS NEUMANN_WIND NEUMANN_PRES MLC_LAT MLC_LON MLC_CLASS MLC_WIND MLC_PRES USA_GUST BOM_GUST BOM_GUST_PER REUNION_GUST REUNION_GUST_PER USA_SEAHGT USA_SEARAD_NE USA_SEARAD_SE USA_SEARAD_SW USA_SEARAD_NW STORM_SPEED STORM_DIR
1906288N21291 1906 47 NA NA NOT_NAMED 1906-10-15 06:00:00 TS 21.0000 -69.4000 35 hurdat_atl main 168 168 O_____________ hurdat_atl AL101906 21.0000 -69.4000 TS 35 0 8 321
1906288N21291 1906 47 NA NA NOT_NAMED 1906-10-15 09:00:00 TS 21.3250 -69.6874 main 192 192 P_____________ AL101906 21.3250 -69.6874 TS 35 0 9 321
1906288N21291 1906 47 NA NA NOT_NAMED 1906-10-15 12:00:00 TS 21.7000 -70.0000 35 hurdat_atl main 221 221 O_____________ hurdat_atl AL101906 21.7000 -70.0000 TS 35 0 10 324
1906288N21291 1906 47 NA NA NOT_NAMED 1906-10-15 15:00:00 TS 22.1625 -70.3501 main 269 269 P_____________ AL101906 22.1625 -70.3501 TS 35 0 12 327
1906288N21291 1906 47 NA NA NOT_NAMED 1906-10-15 18:00:00 TS 22.7000 -70.7000 35 hurdat_atl main 290 288 O_____________ hurdat_atl AL101906 22.7000 -70.7000 TS 35 0 13 331
1906288N21291 1906 47 NA NA NOT_NAMED 1906-10-15 21:00:00 TS 23.2775 -71.0300 main 312 305 P_____________ AL101906 23.2775 -71.0300 TS 35 0 13 335
1906288N21291 1906 47 NA NA NOT_NAMED 1906-10-16 00:00:00 TS 23.9000 -71.3000 35 hurdat_atl main 348 348 O_____________ hurdat_atl AL101906 23.9000 -71.3000 TS 35 0 14 341
1906288N21291 1906 47 NA NA NOT_NAMED 1906-10-16 03:00:00 TS 24.5649 -71.5173 main 409 409 P_____________ AL101906 24.5649 -71.5173 TS 35 0 13 348
1906288N21291 1906 47 NA NA NOT_NAMED 1906-10-16 06:00:00 TS 25.2000 -71.6000 35 hurdat_atl main 469 469 O_____________ hurdat_atl AL101906 25.2000 -71.6000 TS 35 0 12 0
1906288N21291 1906 47 NA NA NOT_NAMED 1906-10-16 09:00:00 TS 25.7300 -71.4955 main 525 525 P_____________ AL101906 25.7300 -71.4955 TS 35 0 10 15
1906288N21291 1906 47 NA NA NOT_NAMED 1906-10-16 12:00:00 TS 26.2000 -71.3000 35 hurdat_atl main 584 584 O_____________ hurdat_atl AL101906 26.2000 -71.3000 TS 35 0 10 17
1906288N21291 1906 47 NA NA NOT_NAMED 1906-10-16 15:00:00 TS 26.6724 -71.1722 main 641 641 P_____________ AL101906 26.6724 -71.1722 TS 35 0 9 17
1906288N21291 1906 47 NA NA NOT_NAMED 1906-10-16 18:00:00 TS 27.1000 -71.0000 35 hurdat_atl main 689 689 O_____________ hurdat_atl AL101906 27.1000 -71.0000 TS 35 0 9 26
1906288N21291 1906 47 NA NA NOT_NAMED 1906-10-16 21:00:00 TS 27.4875 -70.7226 main 741 741 P_____________ AL101906 27.4875 -70.7226 TS 35 0 9 37
1906288N21291 1906 47 NA NA NOT_NAMED 1906-10-17 00:00:00 TS 27.8000 -70.4000 35 hurdat_atl main 782 782 O_____________ hurdat_atl AL101906 27.8000 -70.4000 TS 35 0 8 46
1906288N21291 1906 47 NA NA NOT_NAMED 1906-10-17 03:00:00 TS 28.0300 -70.0923 main 814 814 P_____________ AL101906 28.0300 -70.0923 TS 35 0 7 53
1906288N21291 1906 47 NA NA NOT_NAMED 1906-10-17 06:00:00 TS 28.2000 -69.8000 35 hurdat_atl main 846 846 O_____________ hurdat_atl AL101906 28.2000 -69.8000 TS 35 0 6 55
1906288N21291 1906 47 NA NA NOT_NAMED 1906-10-17 09:00:00 TS 28.3573 -69.5648 main 874 874 P_____________ AL101906 28.3573 -69.5648 TS 35 0 5 56
1906288N21291 1906 47 NA NA NOT_NAMED 1906-10-17 12:00:00 TS 28.5000 -69.3000 35 hurdat_atl main 896 896 O_____________ hurdat_atl AL101906 28.5000 -69.3000 TS 35 0 6 62
1906288N21291 1906 47 NA NA NOT_NAMED 1906-10-17 15:00:00 TS 28.6576 -68.9226 main 934 934 P_____________ AL101906 28.6576 -68.9226 TS 35 0 8 67
1906288N21291 1906 47 NA NA NOT_NAMED 1906-10-17 18:00:00 TS 28.8000 -68.5000 35 hurdat_atl main 962 962 O_____________ hurdat_atl AL101906 28.8000 -68.5000 TS 35 0 8 71
1906288N21291 1906 47 NA NA NOT_NAMED 1906-10-17 21:00:00 TS 28.9074 -68.0998 main 991 991 P_____________ AL101906 28.9074 -68.0998 TS 37 0 7 74
1906288N21291 1906 47 NA NA NOT_NAMED 1906-10-18 00:00:00 TS 29.0000 -67.7000 40 hurdat_atl main 1021 1021 O_____________ hurdat_atl AL101906 29.0000 -67.7000 TS 40 0 7 74
1906288N21291 1906 47 NA NA NOT_NAMED 1906-10-18 03:00:00 TS 29.1073 -67.3075 main 1052 1052 P_____________ AL101906 29.1073 -67.3075 TS 40 0 7 74
1906288N21291 1906 47 NA NA NOT_NAMED 1906-10-18 06:00:00 TS 29.2000 -66.9000 40 hurdat_atl main 1083 1083 O_____________ hurdat_atl AL101906 29.2000 -66.9000 TS 40 0 8 78
1906288N21291 1906 47 NA NA NOT_NAMED 1906-10-18 09:00:00 TS 29.2648 -66.4650 main 1110 1110 P_____________ AL101906 29.2648 -66.4650 TS 42 0 8 83
1906288N21291 1906 47 NA NA NOT_NAMED 1906-10-18 12:00:00 TS 29.3000 -66.0000 45 hurdat_atl main 1145 1145 O_____________ hurdat_atl AL101906 29.3000 -66.0000 TS 45 0 8 87
1906288N21291 1906 47 NA NA NOT_NAMED 1906-10-18 15:00:00 TS 29.3074 -65.5074 main 1175 1175 P_____________ AL101906 29.3074 -65.5074 TS 45 0 9 90
1906288N21291 1906 47 NA NA NOT_NAMED 1906-10-18 18:00:00 TS 29.3000 -65.0000 45 hurdat_atl main 1195 1195 O_____________ hurdat_atl AL101906 29.3000 -65.0000 TS 45 0 9 90
1906288N21291 1906 47 NA NA NOT_NAMED 1906-10-18 21:00:00 TS 29.2998 -64.5000 main 1217 1217 P_____________ AL101906 29.2998 -64.5000 TS 42 0 9 90
1906288N21291 1906 47 NA NA NOT_NAMED 1906-10-19 00:00:00 TS 29.3000 -64.0000 40 hurdat_atl main 1228 1228 O_____________ hurdat_atl AL101906 29.3000 -64.0000 TS 40 0 9 90
1906288N21291 1906 47 NA NA NOT_NAMED 1906-10-19 03:00:00 TS 29.2998 -63.5000 main 1236 1236 P_____________ AL101906 29.2998 -63.5000 TS 40 0 9 90
1906288N21291 1906 47 NA NA NOT_NAMED 1906-10-19 06:00:00 TS 29.3000 -63.0000 40 hurdat_atl main 1246 1246 O_____________ hurdat_atl AL101906 29.3000 -63.0000 TS 40 0 9 90
1906288N21291 1906 47 NA NA NOT_NAMED 1906-10-19 09:00:00 TS 29.2998 -62.5000 main 1258 1258 P_____________ AL101906 29.2998 -62.5000 TS 37 0 9 90
1906288N21291 1906 47 NA NA NOT_NAMED 1906-10-19 12:00:00 TS 29.3000 -62.0000 35 hurdat_atl main 1271 1271 O_____________ hurdat_atl AL101906 29.3000 -62.0000 TS 35 0 9 90
1906288N21291 1906 47 NA NA NOT_NAMED 1906-10-19 15:00:00 TS 29.3073 -61.5001 main 1287 1287 P_____________ AL101906 29.3073 -61.5001 TS 35 0 9 90
1906288N21291 1906 47 NA NA NOT_NAMED 1906-10-19 18:00:00 TS 29.3000 -61.0000 35 hurdat_atl main 1304 1304 O_____________ hurdat_atl AL101906 29.3000 -61.0000 TS 35 0 9 93
1906288N21291 1906 47 NA NA NOT_NAMED 1906-10-19 21:00:00 TS 29.2573 -60.4999 main 1323 1317 P_____________ AL101906 29.2573 -60.4999 TS 32 -1 9 97
1906288N21291 1906 47 NA NA NOT_NAMED 1906-10-20 00:00:00 TS 29.2000 -60.0000 30 hurdat_atl main 1333 1333 O_____________ hurdat_atl AL101906 29.2000 -60.0000 TD 30 -1 9 97
1906288N21291 1906 47 NA NA NOT_NAMED 1906-10-20 03:00:00 TS 29.1498 -59.5000 main 1346 1346 P_____________ AL101906 29.1498 -59.5000 TD 30 -1 9 97
1906288N21291 1906 47 NA NA NOT_NAMED 1906-10-20 06:00:00 TS 29.1000 -59.0000 30 hurdat_atl main 1370 1370 O_____________ hurdat_atl AL101906 29.1000 -59.0000 TD 30 -1 9 96
1906288N21291 1906 47 NA NA NOT_NAMED 1906-10-20 09:00:00 TS 29.0499 -58.4925 main 1386 1386 P_____________ AL101906 29.0499 -58.4925 TD 27 -1 9 97
1906288N21291 1906 47 NA NA NOT_NAMED 1906-10-20 12:00:00 TS 29.0000 -58.0000 25 hurdat_atl main 1413 1413 O_____________ hurdat_atl AL101906 29.0000 -58.0000 TD 25 -1 8 97
1906288N21291 1906 47 NA NA NOT_NAMED 1906-10-20 15:00:00 TS 28.9502 -57.5399 main 1442 1433 P_____________ AL101906 28.9502 -57.5399 TD 25 -1 8 97
1906288N21291 1906 47 NA NA NOT_NAMED 1906-10-20 18:00:00 TS 28.9000 -57.1000 25 hurdat_atl main 1456 O_____________ hurdat_atl AL101906 28.9000 -57.1000 TD 25 -1 8 97

IBTrACS Databaseについて

本データベースは、米国NOAAが公開する1842年以降の世界の熱帯低気圧のベストトラックデータアーカイブInternational Best Track Archive for Climate Stewardship (IBTrACS)を、ウェブで閲覧しやすい形式に変換したものです。

最終更新日:2021-12-03